Time;durP1;ratioP1;P1;durP2;ratioP2;P2;SDS_P1;SDS_P2;PMS_P1;PMS_P2;Temp;Humidity;BMP_temperature;BMP_pressure;BME280_temperature;BME280_humidity;BME280_pressure;Samples;Min_cycle;Max_cycle;Signal;HPM_P1;HPM_P2
2022/10/21 00:01:06;;;;;;;13.07;6.70;;;;;;;;;;2644065;52;21104;-83
2022/10/21 00:03:33;;;;;;;9.60;6.87;;;;;;;;;;2388919;56;21069;-83
2022/10/21 00:06:00;;;;;;;9.88;7.10;;;;;;;;;;2389274;56;21105;-83
2022/10/21 00:08:27;;;;;;;10.23;7.57;;;;;;;;;;2645494;52;21059;-83
2022/10/21 00:10:55;;;;;;;10.45;7.32;;;;;;;;;;2645846;52;21061;-83
2022/10/21 00:13:22;;;;;;;8.90;6.60;;;;;;;;;;2645766;52;21098;-83
2022/10/21 00:15:58;;;;;;;11.32;7.32;;;;;;;;;;2645361;52;21093;-83
2022/10/21 00:18:25;;;;;;;10.48;7.60;;;;;;;;;;2645107;52;21034;-83
2022/10/21 00:20:52;;;;;;;12.63;6.87;;;;;;;;;;2644947;52;21188;-83
2022/10/21 00:23:19;;;;;;;10.65;7.40;;;;;;;;;;2645147;52;21058;-83
2022/10/21 00:25:46;;;;;;;9.43;7.15;;;;;;;;;;2645497;52;21042;-83
2022/10/21 00:28:13;;;;;;;11.73;7.28;;;;;;;;;;2389576;56;21046;-82
2022/10/21 00:30:43;;;;;;;13.10;8.98;;;;;;;;;;2644911;52;21033;-83
2022/10/21 00:33:10;;;;;;;10.63;7.90;;;;;;;;;;2389541;56;21601;-83
2022/10/21 00:35:37;;;;;;;12.93;8.18;;;;;;;;;;2644622;52;21627;-81
2022/10/21 00:38:04;;;;;;;11.27;7.40;;;;;;;;;;2645107;52;21530;-83
2022/10/21 00:40:31;;;;;;;13.70;8.48;;;;;;;;;;2645352;52;21043;-83
2022/10/21 00:42:59;;;;;;;10.68;7.30;;;;;;;;;;2645727;52;21600;-83
2022/10/21 00:45:26;;;;;;;9.35;7.18;;;;;;;;;;2388966;56;21105;-81
2022/10/21 00:47:55;;;;;;;11.12;7.85;;;;;;;;;;2645524;52;21066;-83
2022/10/21 00:50:25;;;;;;;13.18;8.73;;;;;;;;;;2388798;56;21073;-82
2022/10/21 00:52:52;;;;;;;11.90;8.82;;;;;;;;;;2644528;52;21070;-83
2022/10/21 00:55:20;;;;;;;10.55;8.05;;;;;;;;;;2645008;52;21030;-83
2022/10/21 00:57:47;;;;;;;10.00;7.62;;;;;;;;;;2389091;56;21110;-82
2022/10/21 01:00:15;;;;;;;11.20;8.02;;;;;;;;;;2389047;56;21073;-83
2022/10/21 01:02:42;;;;;;;12.23;8.57;;;;;;;;;;2388788;56;21085;-82
2022/10/21 01:05:10;;;;;;;11.95;8.55;;;;;;;;;;2645349;52;21093;-82
2022/10/21 01:07:37;;;;;;;11.43;8.60;;;;;;;;;;2388602;56;21094;-83
2022/10/21 01:10:04;;;;;;;10.88;7.68;;;;;;;;;;2645317;52;21035;-82
2022/10/21 01:12:34;;;;;;;12.40;7.97;;;;;;;;;;2388791;56;21053;-82
2022/10/21 01:15:03;;;;;;;11.45;8.85;;;;;;;;;;2645385;52;21022;-82
2022/10/21 01:17:36;;;;;;;15.40;8.77;;;;;;;;;;2388484;56;21102;-83
2022/10/21 01:20:17;;;;;;;16.52;9.65;;;;;;;;;;2645125;52;21108;-82
2022/10/21 01:22:56;;;;;;;14.87;9.85;;;;;;;;;;2388508;56;21037;-82
2022/10/21 01:25:31;;;;;;;13.30;8.95;;;;;;;;;;2644976;52;21566;-82
2022/10/21 01:28:04;;;;;;;14.10;7.70;;;;;;;;;;2389178;56;21050;-82
2022/10/21 01:30:35;;;;;;;12.35;7.87;;;;;;;;;;2645355;52;21609;-82
2022/10/21 01:33:22;;;;;;;13.73;8.75;;;;;;;;;;2645157;52;21027;-82
2022/10/21 01:35:53;;;;;;;11.57;8.52;;;;;;;;;;2388600;56;21034;-82
2022/10/21 01:38:22;;;;;;;14.93;9.73;;;;;;;;;;2644762;52;21054;-83
2022/10/21 01:40:53;;;;;;;14.82;9.75;;;;;;;;;;2645151;52;21058;-82
2022/10/21 01:43:22;;;;;;;15.65;9.57;;;;;;;;;;2388893;56;21534;-82
2022/10/21 01:45:51;;;;;;;12.02;8.70;;;;;;;;;;2645002;52;21031;-82
2022/10/21 01:48:20;;;;;;;16.42;8.98;;;;;;;;;;2644325;52;21124;-82
2022/10/21 01:50:49;;;;;;;12.63;8.90;;;;;;;;;;2644466;52;21140;-82
2022/10/21 01:53:16;;;;;;;13.43;9.05;;;;;;;;;;2644136;52;21086;-82
2022/10/21 01:55:44;;;;;;;14.80;9.55;;;;;;;;;;2645200;52;21645;-82
2022/10/21 01:58:14;;;;;;;13.20;9.35;;;;;;;;;;2644376;52;21031;-82
2022/10/21 02:00:41;;;;;;;13.45;9.57;;;;;;;;;;2645144;52;21098;-82
2022/10/21 02:03:10;;;;;;;16.02;9.73;;;;;;;;;;2644813;52;21069;-82
2022/10/21 02:05:37;;;;;;;12.57;9.15;;;;;;;;;;2645448;52;21049;-82
2022/10/21 02:08:04;;;;;;;16.02;9.50;;;;;;;;;;2389008;56;21653;-82
2022/10/21 02:10:34;;;;;;;16.73;9.90;;;;;;;;;;2645071;52;21542;-81
2022/10/21 02:13:03;;;;;;;19.42;9.75;;;;;;;;;;2645252;52;21038;-81
2022/10/21 02:15:30;;;;;;;13.52;9.80;;;;;;;;;;2645114;52;21092;-82
2022/10/21 02:17:58;;;;;;;12.43;9.20;;;;;;;;;;2388059;56;21070;-82
2022/10/21 02:20:28;;;;;;;12.93;9.45;;;;;;;;;;2388929;56;21070;-82
2022/10/21 02:22:55;;;;;;;13.10;8.63;;;;;;;;;;2644658;52;21113;-82
2022/10/21 02:25:24;;;;;;;16.80;9.43;;;;;;;;;;2388794;56;21105;-82
2022/10/21 02:27:51;;;;;;;13.27;8.55;;;;;;;;;;2644472;52;21026;-82
2022/10/21 02:30:18;;;;;;;14.05;9.02;;;;;;;;;;2644767;52;21053;-81
2022/10/21 02:32:47;;;;;;;12.88;8.50;;;;;;;;;;2644973;52;21026;-80
2022/10/21 02:35:20;;;;;;;13.62;9.50;;;;;;;;;;2388727;56;21144;-82
2022/10/21 02:37:51;;;;;;;12.52;9.73;;;;;;;;;;2643585;52;21153;-81
2022/10/21 02:40:20;;;;;;;15.82;10.00;;;;;;;;;;2389021;56;21050;-82
2022/10/21 02:42:50;;;;;;;16.40;10.68;;;;;;;;;;2644783;52;21121;-82
2022/10/21 02:45:17;;;;;;;13.48;10.38;;;;;;;;;;2644974;52;21034;-82
2022/10/21 02:47:47;;;;;;;16.70;10.45;;;;;;;;;;2644899;52;21030;-82
2022/10/21 02:50:14;;;;;;;16.95;10.73;;;;;;;;;;2644758;52;21113;-82
2022/10/21 02:52:41;;;;;;;13.20;9.20;;;;;;;;;;2388716;56;21085;-82
2022/10/21 02:55:09;;;;;;;15.98;10.32;;;;;;;;;;2388703;56;21062;-82
2022/10/21 02:57:36;;;;;;;12.48;9.35;;;;;;;;;;2389298;56;21069;-82
2022/10/21 03:00:03;;;;;;;13.60;9.48;;;;;;;;;;2645309;52;21045;-81
2022/10/21 03:02:30;;;;;;;14.45;9.65;;;;;;;;;;2644139;52;21025;-82
2022/10/21 03:04:57;;;;;;;19.55;11.27;;;;;;;;;;2389142;56;21117;-81
2022/10/21 03:07:24;;;;;;;14.43;9.55;;;;;;;;;;2644936;52;21056;-82
2022/10/21 03:09:51;;;;;;;16.48;10.93;;;;;;;;;;2645480;52;21093;-81
2022/10/21 03:12:18;;;;;;;14.82;9.80;;;;;;;;;;2645057;52;21140;-82
2022/10/21 03:14:45;;;;;;;15.07;10.30;;;;;;;;;;2645111;52;21082;-82
2022/10/21 03:17:12;;;;;;;17.85;10.25;;;;;;;;;;2389051;56;21078;-81
2022/10/21 03:19:39;;;;;;;14.75;9.90;;;;;;;;;;2645328;52;21574;-82
2022/10/21 03:22:06;;;;;;;24.23;10.38;;;;;;;;;;2644329;52;21117;-82
2022/10/21 03:24:33;;;;;;;17.98;11.30;;;;;;;;;;2644218;52;21649;-82
2022/10/21 03:27:00;;;;;;;18.10;10.93;;;;;;;;;;2388517;56;21093;-82
2022/10/21 03:29:27;;;;;;;17.50;10.55;;;;;;;;;;2389138;56;21652;-82
2022/10/21 03:31:54;;;;;;;16.75;11.10;;;;;;;;;;2645073;52;21597;-82
2022/10/21 03:34:21;;;;;;;20.48;11.20;;;;;;;;;;2389246;56;21062;-82
2022/10/21 03:36:48;;;;;;;15.55;9.88;;;;;;;;;;2645326;52;21043;-82
2022/10/21 03:39:15;;;;;;;14.13;10.02;;;;;;;;;;2388837;56;21066;-82
2022/10/21 03:41:42;;;;;;;16.67;11.38;;;;;;;;;;2644841;52;21129;-81
2022/10/21 03:44:09;;;;;;;17.48;10.73;;;;;;;;;;2644140;52;21046;-81
2022/10/21 03:46:36;;;;;;;16.92;10.10;;;;;;;;;;2644171;52;21153;-82
2022/10/21 03:49:03;;;;;;;14.05;9.60;;;;;;;;;;2644787;52;21121;-81
2022/10/21 03:51:30;;;;;;;14.98;10.88;;;;;;;;;;2388349;56;21034;-82
2022/10/21 03:53:57;;;;;;;17.48;9.15;;;;;;;;;;2389008;56;21054;-82
2022/10/21 03:56:24;;;;;;;16.35;10.02;;;;;;;;;;2645294;52;21587;-82
2022/10/21 03:58:51;;;;;;;17.08;10.27;;;;;;;;;;2644762;52;21069;-82
2022/10/21 04:01:18;;;;;;;15.82;10.90;;;;;;;;;;2388950;56;21117;-82
2022/10/21 04:03:44;;;;;;;16.70;10.52;;;;;;;;;;2644991;52;21034;-81
2022/10/21 04:06:11;;;;;;;16.80;11.10;;;;;;;;;;2389172;56;21070;-81
2022/10/21 04:08:38;;;;;;;18.87;11.25;;;;;;;;;;2388929;56;21085;-81
2022/10/21 04:11:05;;;;;;;16.30;11.10;;;;;;;;;;2644044;52;21124;-81
2022/10/21 04:13:32;;;;;;;18.00;11.57;;;;;;;;;;2644439;52;21049;-81
2022/10/21 04:16:00;;;;;;;17.83;11.57;;;;;;;;;;2388199;56;21038;-81
2022/10/21 04:18:27;;;;;;;20.92;13.05;;;;;;;;;;2643828;52;21136;-81
2022/10/21 04:20:54;;;;;;;17.62;9.85;;;;;;;;;;2388423;56;21133;-81
2022/10/21 04:23:21;;;;;;;18.92;12.15;;;;;;;;;;2643886;52;21066;-81
2022/10/21 04:25:48;;;;;;;20.00;11.98;;;;;;;;;;2388734;56;21089;-80
2022/10/21 04:28:15;;;;;;;22.80;13.43;;;;;;;;;;2390528;56;21049;-80
2022/10/21 04:30:42;;;;;;;18.23;12.55;;;;;;;;;;2644498;52;21046;-80
2022/10/21 04:33:09;;;;;;;18.98;12.00;;;;;;;;;;2388048;56;21124;-81
2022/10/21 04:35:38;;;;;;;24.27;12.88;;;;;;;;;;2643978;52;21105;-82
2022/10/21 04:38:05;;;;;;;18.55;11.63;;;;;;;;;;2645573;52;21346;-83
2022/10/21 04:40:32;;;;;;;19.10;12.52;;;;;;;;;;2644964;52;21105;-81
2022/10/21 04:42:59;;;;;;;16.45;10.88;;;;;;;;;;2389228;56;21034;-82
2022/10/21 04:45:26;;;;;;;17.05;10.68;;;;;;;;;;2389425;56;21629;-82
2022/10/21 04:50:24;;;;;;;20.50;11.55;;;;;;;;;;2427125;56;21151;-79
2022/10/21 04:52:51;;;;;;;20.90;11.88;;;;;;;;;;2243958;60;21071;-79
2022/10/21 04:55:18;;;;;;;17.17;11.05;;;;;;;;;;2243912;60;21071;-80
2022/10/21 04:57:45;;;;;;;15.05;10.02;;;;;;;;;;2243673;60;21678;-79
2022/10/21 05:00:13;;;;;;;16.55;10.85;;;;;;;;;;2467330;55;21619;-79
2022/10/21 05:02:40;;;;;;;18.30;11.80;;;;;;;;;;2466871;56;21115;-79
2022/10/21 05:05:08;;;;;;;18.33;11.40;;;;;;;;;;2467800;56;21080;-80
2022/10/21 05:07:35;;;;;;;18.98;12.43;;;;;;;;;;2242785;60;21147;-79
2022/10/21 05:10:01;;;;;;;18.70;12.35;;;;;;;;;;2467526;55;21202;-80
2022/10/21 05:12:28;;;;;;;17.60;12.43;;;;;;;;;;2242840;60;21071;-79
2022/10/21 05:14:55;;;;;;;19.17;11.57;;;;;;;;;;2466343;56;21094;-77
2022/10/21 05:17:22;;;;;;;20.88;12.82;;;;;;;;;;2242949;60;21067;-82
2022/10/21 05:19:49;;;;;;;22.02;12.37;;;;;;;;;;2467463;55;21115;-82
2022/10/21 05:22:16;;;;;;;17.85;11.25;;;;;;;;;;2242918;60;21158;-81
2022/10/21 05:24:43;;;;;;;17.37;10.55;;;;;;;;;;2242367;60;21146;-80
2022/10/21 05:27:10;;;;;;;19.77;11.90;;;;;;;;;;2467312;56;21156;-79
2022/10/21 05:29:37;;;;;;;17.27;10.80;;;;;;;;;;2467384;55;21686;-80
2022/10/21 05:32:05;;;;;;;16.80;11.38;;;;;;;;;;2242520;60;21627;-78
2022/10/21 05:34:31;;;;;;;17.08;10.98;;;;;;;;;;2242198;60;21127;-79
2022/10/21 05:36:59;;;;;;;15.00;10.38;;;;;;;;;;2466984;56;21074;-80
2022/10/21 05:39:26;;;;;;;15.68;10.68;;;;;;;;;;2242287;60;21559;-78
2022/10/21 05:41:53;;;;;;;18.55;10.77;;;;;;;;;;2242518;60;21162;-79
2022/10/21 05:44:20;;;;;;;15.13;10.75;;;;;;;;;;2467446;56;21218;-79
2022/10/21 05:46:47;;;;;;;20.98;10.65;;;;;;;;;;2467595;56;21051;-79
2022/10/21 05:49:14;;;;;;;20.48;11.90;;;;;;;;;;2242501;60;21147;-79
2022/10/21 05:51:43;;;;;;;19.33;11.93;;;;;;;;;;2242134;60;21071;-79
2022/10/21 05:54:10;;;;;;;15.82;10.43;;;;;;;;;;2242993;60;21143;-80
2022/10/21 05:56:37;;;;;;;18.83;12.73;;;;;;;;;;2243205;60;21072;-79
2022/10/21 05:59:04;;;;;;;18.10;11.65;;;;;;;;;;2243370;60;22156;-80
2022/10/21 06:01:31;;;;;;;22.65;12.98;;;;;;;;;;2242693;60;21143;-80
2022/10/21 06:03:58;;;;;;;15.85;11.23;;;;;;;;;;2243259;60;21076;-80
2022/10/21 06:06:24;;;;;;;21.25;11.68;;;;;;;;;;2243250;60;21083;-80
2022/10/21 06:08:51;;;;;;;16.85;10.27;;;;;;;;;;2241003;60;21221;-80
2022/10/21 06:11:19;;;;;;;17.80;11.48;;;;;;;;;;2242587;60;21150;-79
2022/10/21 06:13:46;;;;;;;18.48;11.80;;;;;;;;;;2242731;60;21071;-79
2022/10/21 06:16:14;;;;;;;16.70;10.50;;;;;;;;;;2242441;60;21099;-79
2022/10/21 06:18:41;;;;;;;17.58;11.93;;;;;;;;;;2241537;60;21123;-79
2022/10/21 06:21:09;;;;;;;20.35;13.30;;;;;;;;;;2242153;60;21143;-80
2022/10/21 06:23:36;;;;;;;20.65;12.77;;;;;;;;;;2242530;60;21079;-80
2022/10/21 06:26:04;;;;;;;28.05;13.55;;;;;;;;;;2467068;56;21160;-79
2022/10/21 06:28:33;;;;;;;23.67;13.88;;;;;;;;;;2242324;60;21079;-79
2022/10/21 06:31:00;;;;;;;23.60;14.23;;;;;;;;;;2242627;60;21075;-79
2022/10/21 06:33:27;;;;;;;17.30;12.27;;;;;;;;;;2243178;60;21095;-80
2022/10/21 06:35:54;;;;;;;24.27;13.62;;;;;;;;;;2242583;60;21135;-79
2022/10/21 06:38:21;;;;;;;19.50;13.50;;;;;;;;;;2241998;60;21087;-80
2022/10/21 06:40:48;;;;;;;20.92;12.25;;;;;;;;;;2242277;60;21171;-79
2022/10/21 06:43:15;;;;;;;17.90;11.60;;;;;;;;;;2242617;60;21162;-78
2022/10/21 06:45:42;;;;;;;20.25;13.57;;;;;;;;;;2466844;56;21071;-79
2022/10/21 06:48:09;;;;;;;19.20;13.38;;;;;;;;;;2467638;55;21226;-79
2022/10/21 06:50:37;;;;;;;21.05;13.00;;;;;;;;;;2467048;56;21083;-80
2022/10/21 06:53:04;;;;;;;24.02;15.23;;;;;;;;;;2466638;56;21063;-79
2022/10/21 06:55:31;;;;;;;20.37;13.32;;;;;;;;;;2242722;60;21127;-79
2022/10/21 06:57:59;;;;;;;21.37;13.10;;;;;;;;;;2242447;60;21600;-79
2022/10/21 07:00:26;;;;;;;21.25;12.48;;;;;;;;;;2242020;60;21142;-79
2022/10/21 07:02:53;;;;;;;21.70;13.00;;;;;;;;;;2242325;60;21125;-79
2022/10/21 07:05:20;;;;;;;23.23;13.32;;;;;;;;;;2242154;60;21134;-79
2022/10/21 07:07:47;;;;;;;19.42;13.68;;;;;;;;;;2467186;56;21085;-79
2022/10/21 07:10:14;;;;;;;21.55;13.55;;;;;;;;;;2467397;55;21171;-80
2022/10/21 07:12:41;;;;;;;22.35;14.18;;;;;;;;;;2395513;53;21152;-78
2022/10/21 07:15:09;;;;;;;21.52;14.25;;;;;;;;;;2553887;54;21630;-79
2022/10/21 07:17:36;;;;;;;24.63;13.80;;;;;;;;;;2553022;54;21065;-79
2022/10/21 07:20:03;;;;;;;21.33;13.55;;;;;;;;;;2312870;58;21315;-79
2022/10/21 07:22:30;;;;;;;23.40;13.38;;;;;;;;;;2313791;58;21155;-80
2022/10/21 07:24:58;;;;;;;21.58;14.43;;;;;;;;;;2370148;53;72748;-73
2022/10/21 07:27:25;;;;;;;20.12;13.52;;;;;;;;;;2349194;57;21237;-73
2022/10/21 07:29:52;;;;;;;20.00;13.07;;;;;;;;;;2375272;53;21106;-75
2022/10/21 07:32:19;;;;;;;24.48;13.35;;;;;;;;;;2349725;57;21132;-75
2022/10/21 07:34:45;;;;;;;17.62;11.60;;;;;;;;;;2436727;53;21120;-76
2022/10/21 07:37:12;;;;;;;19.10;12.18;;;;;;;;;;2338774;54;21072;-75
2022/10/21 07:39:39;;;;;;;19.12;12.50;;;;;;;;;;2323175;58;21156;-76
2022/10/21 07:42:08;;;;;;;22.65;13.80;;;;;;;;;;2322741;58;21072;-75
2022/10/21 07:44:35;;;;;;;26.02;14.27;;;;;;;;;;2343297;54;21131;-75
2022/10/21 07:47:02;;;;;;;23.62;14.70;;;;;;;;;;2323944;58;21132;-76
2022/10/21 07:49:29;;;;;;;21.65;14.55;;;;;;;;;;2544777;54;21115;-75
2022/10/21 07:51:56;;;;;;;23.42;14.15;;;;;;;;;;2323047;58;21311;-76
2022/10/21 07:54:23;;;;;;;22.80;13.70;;;;;;;;;;2323176;58;21104;-75
2022/10/21 07:56:51;;;;;;;19.80;12.77;;;;;;;;;;2322709;58;21550;-75
2022/10/21 07:59:19;;;;;;;20.33;13.25;;;;;;;;;;2323275;58;21079;-73
2022/10/21 08:01:47;;;;;;;21.15;11.95;;;;;;;;;;2322504;58;21076;-74
2022/10/21 08:04:14;;;;;;;20.52;13.45;;;;;;;;;;2322960;58;21594;-73
2022/10/21 08:06:42;;;;;;;16.87;12.23;;;;;;;;;;2322829;58;21053;-73
2022/10/21 08:09:09;;;;;;;20.52;13.45;;;;;;;;;;2321791;58;21547;-74
2022/10/21 08:11:36;;;;;;;21.23;13.75;;;;;;;;;;2337535;54;21064;-78
2022/10/21 08:14:05;;;;;;;23.33;13.57;;;;;;;;;;2329954;54;21064;-76
2022/10/21 08:16:32;;;;;;;20.77;13.27;;;;;;;;;;2324136;58;21147;-73
2022/10/21 08:19:00;;;;;;;20.08;14.00;;;;;;;;;;2323371;58;21615;-73
2022/10/21 08:21:27;;;;;;;19.45;13.43;;;;;;;;;;2324156;58;21555;-73
2022/10/21 08:23:54;;;;;;;22.17;12.88;;;;;;;;;;2323893;58;21100;-72
2022/10/21 08:26:21;;;;;;;19.23;13.07;;;;;;;;;;2322570;58;21139;-73
2022/10/21 08:28:48;;;;;;;20.70;13.38;;;;;;;;;;2324472;58;21053;-73
2022/10/21 08:31:16;;;;;;;19.50;13.73;;;;;;;;;;2324442;58;21148;-75
2022/10/21 08:33:43;;;;;;;22.73;14.55;;;;;;;;;;2324388;58;21583;-75
2022/10/21 08:36:12;;;;;;;20.35;13.27;;;;;;;;;;2324545;58;21052;-74
2022/10/21 08:38:39;;;;;;;23.62;14.18;;;;;;;;;;2324760;58;21132;-74
2022/10/21 08:41:11;;;;;;;20.95;13.82;;;;;;;;;;2324426;58;21123;-74
2022/10/21 08:43:39;;;;;;;18.80;12.20;;;;;;;;;;2324375;58;21056;-74
2022/10/21 08:46:08;;;;;;;19.10;13.55;;;;;;;;;;2324735;58;21539;-74
2022/10/21 08:48:39;;;;;;;20.37;12.15;;;;;;;;;;2324978;58;21037;-74
2022/10/21 08:51:08;;;;;;;21.10;13.98;;;;;;;;;;2324103;58;21128;-75
2022/10/21 08:53:37;;;;;;;20.33;13.32;;;;;;;;;;2392997;54;21567;-74
2022/10/21 08:56:05;;;;;;;21.08;13.38;;;;;;;;;;2429555;53;21057;-75
2022/10/21 08:58:32;;;;;;;20.75;13.35;;;;;;;;;;2324920;58;21060;-75
2022/10/21 09:01:02;;;;;;;21.73;14.05;;;;;;;;;;2324391;58;21092;-74
2022/10/21 09:03:33;;;;;;;24.77;14.68;;;;;;;;;;2402615;54;21080;-74
2022/10/21 09:06:13;;;;;;;22.13;13.57;;;;;;;;;;2323946;58;21119;-75
2022/10/21 09:08:44;;;;;;;24.87;15.18;;;;;;;;;;2323906;58;21045;-74
2022/10/21 09:11:18;;;;;;;19.45;14.05;;;;;;;;;;2324801;58;21380;-74
2022/10/21 09:13:52;;;;;;;19.50;13.25;;;;;;;;;;2325074;58;21063;-75
2022/10/21 09:16:22;;;;;;;20.15;13.13;;;;;;;;;;2419924;53;21132;-75
2022/10/21 09:18:55;;;;;;;20.15;12.80;;;;;;;;;;2324892;58;21151;-74
2022/10/21 09:21:27;;;;;;;21.05;13.40;;;;;;;;;;2323913;58;21068;-75
2022/10/21 09:23:58;;;;;;;19.45;13.23;;;;;;;;;;2324873;58;21065;-74
2022/10/21 09:26:32;;;;;;;23.55;13.52;;;;;;;;;;2464235;53;21044;-74
2022/10/21 09:29:01;;;;;;;21.80;12.37;;;;;;;;;;2324963;58;21054;-74
2022/10/21 09:31:28;;;;;;;19.80;12.95;;;;;;;;;;2323622;58;21123;-74
2022/10/21 09:33:58;;;;;;;18.65;12.65;;;;;;;;;;2324593;58;21599;-74
2022/10/21 09:36:26;;;;;;;27.17;13.62;;;;;;;;;;2325006;58;21045;-75
2022/10/21 09:38:56;;;;;;;20.67;12.98;;;;;;;;;;2323931;58;21128;-75
2022/10/21 09:41:24;;;;;;;20.45;13.20;;;;;;;;;;2323110;58;21056;-74
2022/10/21 09:43:55;;;;;;;20.20;13.32;;;;;;;;;;2324580;58;21118;-74
2022/10/21 09:46:22;;;;;;;16.62;12.43;;;;;;;;;;2324720;58;21052;-75
2022/10/21 09:48:50;;;;;;;21.00;13.27;;;;;;;;;;2323866;58;21041;-74
2022/10/21 09:51:19;;;;;;;18.58;12.60;;;;;;;;;;2323322;58;21047;-74
2022/10/21 09:53:48;;;;;;;22.92;12.75;;;;;;;;;;2457275;54;21539;-74
2022/10/21 09:56:17;;;;;;;20.15;12.93;;;;;;;;;;2326355;54;21575;-74
2022/10/21 09:58:46;;;;;;;18.98;13.60;;;;;;;;;;2328585;54;21057;-74
2022/10/21 10:01:16;;;;;;;20.08;12.75;;;;;;;;;;2322436;58;21547;-75
2022/10/21 10:03:45;;;;;;;18.05;12.30;;;;;;;;;;2323344;58;21041;-75
2022/10/21 10:06:12;;;;;;;21.80;13.13;;;;;;;;;;2323343;58;21041;-75
2022/10/21 10:08:41;;;;;;;17.48;11.68;;;;;;;;;;2322901;58;21116;-75
2022/10/21 10:11:12;;;;;;;19.42;12.52;;;;;;;;;;2322455;58;21060;-74
2022/10/21 10:13:40;;;;;;;18.48;12.50;;;;;;;;;;2333819;54;21128;-74
2022/10/21 10:16:13;;;;;;;18.17;12.57;;;;;;;;;;2322706;58;21135;-75
2022/10/21 10:18:40;;;;;;;20.12;13.25;;;;;;;;;;2324317;54;21064;-75
2022/10/21 10:21:10;;;;;;;20.65;12.70;;;;;;;;;;2323099;58;21072;-74
2022/10/21 10:23:43;;;;;;;16.58;12.10;;;;;;;;;;2322808;58;21176;-74
2022/10/21 10:26:11;;;;;;;17.12;12.15;;;;;;;;;;2322577;58;21048;-74
2022/10/21 10:28:38;;;;;;;16.02;10.95;;;;;;;;;;2323373;58;21048;-75
2022/10/21 10:31:06;;;;;;;15.98;11.70;;;;;;;;;;2322676;58;21068;-75
2022/10/21 10:33:35;;;;;;;15.68;11.75;;;;;;;;;;2322755;58;21109;-74
2022/10/21 10:36:04;;;;;;;16.02;11.35;;;;;;;;;;2322736;58;21060;-75
2022/10/21 10:38:34;;;;;;;19.35;11.80;;;;;;;;;;2323188;58;21072;-75
2022/10/21 10:41:05;;;;;;;17.90;11.88;;;;;;;;;;2322107;58;21080;-74
2022/10/21 10:43:34;;;;;;;20.88;11.70;;;;;;;;;;2323399;58;21041;-74
2022/10/21 10:46:02;;;;;;;17.48;12.00;;;;;;;;;;2322449;58;21776;-74
2022/10/21 10:48:36;;;;;;;17.45;11.93;;;;;;;;;;2323196;58;21092;-75
2022/10/21 10:51:05;;;;;;;17.73;10.50;;;;;;;;;;2322674;58;21219;-74
2022/10/21 10:53:34;;;;;;;16.77;11.38;;;;;;;;;;2323650;58;21044;-74
2022/10/21 10:56:04;;;;;;;18.42;11.90;;;;;;;;;;2322426;58;21196;-74
2022/10/21 10:58:33;;;;;;;17.33;11.82;;;;;;;;;;2323057;58;21057;-75
2022/10/21 11:01:02;;;;;;;17.10;11.73;;;;;;;;;;2322774;58;21068;-75
2022/10/21 11:03:35;;;;;;;16.90;10.88;;;;;;;;;;2323087;58;21100;-74
2022/10/21 11:06:01;;;;;;;;;;;;;;;;;;2325840;58;21071;-75
2022/10/21 11:08:32;;;;;;;13.90;9.50;;;;;;;;;;2323473;58;20095;-75
2022/10/21 11:11:00;;;;;;;16.95;11.52;;;;;;;;;;2320790;58;21057;-74
2022/10/21 11:13:27;;;;;;;13.80;9.25;;;;;;;;;;2322811;58;21323;-75
2022/10/21 11:16:01;;;;;;;15.88;11.10;;;;;;;;;;2322442;58;21056;-75
2022/10/21 11:18:27;;;;;;;;;;;;;;;;;;2569295;54;21092;-75
2022/10/21 11:21:03;;;;;;;14.95;10.25;;;;;;;;;;2322201;58;20116;-74
2022/10/21 11:23:39;;;;;;;16.95;11.50;;;;;;;;;;2565474;54;21031;-75
2022/10/21 11:26:14;;;;;;;14.18;9.98;;;;;;;;;;2322246;58;21120;-75
2022/10/21 11:28:46;;;;;;;18.25;10.65;;;;;;;;;;2321560;58;21713;-76
2022/10/21 11:31:17;;;;;;;15.30;10.35;;;;;;;;;;2323015;58;21037;-75
2022/10/21 11:33:48;;;;;;;17.65;10.55;;;;;;;;;;2322765;58;21108;-76
2022/10/21 11:36:19;;;;;;;16.17;9.27;;;;;;;;;;2323250;58;21068;-75
2022/10/21 11:38:50;;;;;;;13.93;9.38;;;;;;;;;;2322031;58;21061;-74
2022/10/21 11:41:23;;;;;;;12.48;9.35;;;;;;;;;;2322682;58;21327;-75
2022/10/21 11:43:56;;;;;;;15.07;9.65;;;;;;;;;;2322889;58;21052;-75
2022/10/21 11:46:26;;;;;;;14.57;9.57;;;;;;;;;;2460281;53;22154;-75
2022/10/21 11:49:08;;;;;;;13.45;8.68;;;;;;;;;;2323063;58;21048;-75
2022/10/21 11:51:39;;;;;;;13.25;8.88;;;;;;;;;;2322708;58;21551;-75
2022/10/21 11:54:26;;;;;;;12.25;8.73;;;;;;;;;;2322692;58;21543;-75
2022/10/21 11:56:58;;;;;;;12.43;8.23;;;;;;;;;;2322808;58;21131;-75
2022/10/21 11:59:31;;;;;;;12.85;9.07;;;;;;;;;;2322538;58;21532;-75
2022/10/21 12:01:57;;;;;;;;;;;;;;;;;;2326287;58;21057;-75
2022/10/21 12:04:29;;;;;;;14.18;8.55;;;;;;;;;;2323267;58;20107;-75
2022/10/21 12:07:07;;;;;;;12.30;8.50;;;;;;;;;;2345396;54;21068;-74
2022/10/21 12:09:37;;;;;;;12.05;8.70;;;;;;;;;;2323998;58;21056;-75
2022/10/21 12:12:06;;;;;;;13.68;8.43;;;;;;;;;;2322527;58;21124;-75
2022/10/21 12:14:34;;;;;;;11.90;8.70;;;;;;;;;;2323610;58;21049;-75
2022/10/21 12:17:03;;;;;;;10.70;7.82;;;;;;;;;;2323231;58;21575;-75
2022/10/21 12:19:30;;;;;;;11.48;8.43;;;;;;;;;;2324016;58;21053;-75
2022/10/21 12:21:57;;;;;;;10.65;7.82;;;;;;;;;;2322629;58;21116;-75
2022/10/21 12:24:28;;;;;;;13.20;8.18;;;;;;;;;;2321920;58;21156;-76
2022/10/21 12:26:59;;;;;;;13.57;9.68;;;;;;;;;;2431329;54;21658;-76
2022/10/21 12:29:32;;;;;;;12.63;8.93;;;;;;;;;;2322321;58;21156;-75
2022/10/21 12:32:03;;;;;;;14.03;9.30;;;;;;;;;;2322939;58;21057;-75
2022/10/21 12:34:30;;;;;;;14.80;9.23;;;;;;;;;;2323398;58;21770;-75
2022/10/21 12:36:57;;;;;;;13.38;8.07;;;;;;;;;;2326649;54;21033;-73
2022/10/21 12:39:52;;;;;;;17.35;9.43;;;;;;;;;;2323253;58;21880;-75
2022/10/21 12:42:23;;;;;;;12.15;7.68;;;;;;;;;;2292626;58;21036;-75
2022/10/21 12:44:51;;;;;;;11.85;7.90;;;;;;;;;;2321973;58;21100;-76
2022/10/21 12:50:07;;;;;;;12.13;7.53;;;;;;;;;;2456879;53;22133;-74
2022/10/21 12:52:37;;;;;;;11.50;8.52;;;;;;;;;;2345939;57;21718;-74
2022/10/21 12:55:07;;;;;;;13.32;8.23;;;;;;;;;;2355202;56;21034;-74
2022/10/21 12:57:35;;;;;;;12.20;8.38;;;;;;;;;;2373302;56;21094;-73
2022/10/21 13:00:24;;;;;;;12.05;8.32;;;;;;;;;;2372778;56;21166;-74
2022/10/21 13:02:58;;;;;;;14.55;8.40;;;;;;;;;;2302014;56;21050;-73
2022/10/21 13:05:44;;;;;;;13.62;7.85;;;;;;;;;;2374912;52;21042;-73
2022/10/21 13:08:15;;;;;;;12.80;7.80;;;;;;;;;;2373049;56;21754;-73
2022/10/21 13:11:11;;;;;;;11.50;7.78;;;;;;;;;;2372871;56;21055;-74
2022/10/21 13:13:39;;;;;;;8.90;6.65;;;;;;;;;;2372919;56;21044;-74
2022/10/21 13:16:24;;;;;;;11.60;8.07;;;;;;;;;;2373474;56;21126;-74
2022/10/21 13:18:52;;;;;;;11.02;6.93;;;;;;;;;;2373340;56;21110;-74
2022/10/21 13:21:24;;;;;;;10.85;7.28;;;;;;;;;;2373270;56;21106;-74
2022/10/21 13:23:51;;;;;;;13.95;8.88;;;;;;;;;;2372428;56;21106;-74
2022/10/21 13:26:23;;;;;;;14.73;8.68;;;;;;;;;;2329509;52;21181;-76
2022/10/21 13:28:58;;;;;;;11.68;8.63;;;;;;;;;;2540325;54;21116;-76
2022/10/21 13:31:25;;;;;;;13.77;8.13;;;;;;;;;;2301991;58;21568;-76
2022/10/21 13:33:53;;;;;;;14.30;8.23;;;;;;;;;;2302692;58;21070;-76
2022/10/21 13:36:31;;;;;;;13.80;8.05;;;;;;;;;;2300032;58;21600;-77
2022/10/21 13:38:59;;;;;;;13.40;7.80;;;;;;;;;;2301287;58;21163;-76
2022/10/21 13:41:27;;;;;;;11.32;7.93;;;;;;;;;;2301115;58;21632;-77
2022/10/21 13:43:56;;;;;;;11.18;8.63;;;;;;;;;;2301012;58;21431;-76
2022/10/21 13:46:26;;;;;;;13.00;8.27;;;;;;;;;;2299530;58;21529;-76
2022/10/21 13:48:53;;;;;;;11.60;7.70;;;;;;;;;;2300205;58;21591;-76
2022/10/21 13:51:21;;;;;;;13.27;8.45;;;;;;;;;;2538005;54;21062;-76
2022/10/21 13:53:49;;;;;;;12.00;8.30;;;;;;;;;;2299391;58;21066;-76
2022/10/21 13:56:20;;;;;;;14.60;8.85;;;;;;;;;;2300909;58;21050;-77
2022/10/21 13:58:47;;;;;;;16.00;8.25;;;;;;;;;;2301378;58;21141;-76
2022/10/21 14:01:15;;;;;;;12.27;8.82;;;;;;;;;;2300415;58;21146;-76
2022/10/21 14:03:42;;;;;;;15.88;9.23;;;;;;;;;;2299815;58;21070;-75
2022/10/21 14:06:10;;;;;;;11.60;8.43;;;;;;;;;;2298970;58;21065;-77
2022/10/21 14:08:41;;;;;;;12.07;8.63;;;;;;;;;;2299122;58;21074;-77
2022/10/21 14:11:12;;;;;;;15.45;8.25;;;;;;;;;;2297871;58;21058;-77
2022/10/21 14:13:39;;;;;;;13.70;9.07;;;;;;;;;;2299731;58;21039;-77
2022/10/21 14:16:08;;;;;;;12.40;8.18;;;;;;;;;;2537306;54;22625;-77
2022/10/21 14:18:37;;;;;;;11.20;7.65;;;;;;;;;;2299496;58;21674;-77
2022/10/21 14:21:04;;;;;;;17.80;8.50;;;;;;;;;;2299331;58;21557;-77
2022/10/21 14:23:32;;;;;;;15.77;9.50;;;;;;;;;;2300793;58;21067;-76
2022/10/21 14:26:04;;;;;;;17.27;8.80;;;;;;;;;;2299784;58;21054;-76
2022/10/21 14:28:31;;;;;;;13.97;8.93;;;;;;;;;;2299877;58;21074;-76
2022/10/21 14:31:00;;;;;;;11.68;8.15;;;;;;;;;;2299517;58;21051;-75
2022/10/21 14:33:27;;;;;;;15.27;10.02;;;;;;;;;;2299113;58;21081;-75
2022/10/21 14:36:05;;;;;;;20.25;10.75;;;;;;;;;;2299929;58;21735;-74
2022/10/21 14:38:36;;;;;;;12.27;9.35;;;;;;;;;;2300671;58;21050;-74